sensor_id;sensor_type;location;lat;lon;timestamp;temperature;humidity
66119;DHT22;52912;48.564;9.302;2023-02-03T00:01:40;5.20;89.99
66119;DHT22;52912;48.564;9.302;2023-02-03T00:04:05;5.14;89.80
66119;DHT22;52912;48.564;9.302;2023-02-03T00:06:32;5.14;89.87
66119;DHT22;52912;48.564;9.302;2023-02-03T00:08:58;5.14;90.08
66119;DHT22;52912;48.564;9.302;2023-02-03T00:11:24;5.14;89.95
66119;DHT22;52912;48.564;9.302;2023-02-03T00:13:50;5.13;89.94
66119;DHT22;52912;48.564;9.302;2023-02-03T00:16:15;5.18;89.93
66119;DHT22;52912;48.564;9.302;2023-02-03T00:18:41;5.21;89.72
66119;DHT22;52912;48.564;9.302;2023-02-03T00:21:06;5.20;89.55
66119;DHT22;52912;48.564;9.302;2023-02-03T00:23:33;5.15;89.73
66119;DHT22;52912;48.564;9.302;2023-02-03T00:26:05;5.17;89.67
66119;DHT22;52912;48.564;9.302;2023-02-03T00:28:31;5.18;89.73
66119;DHT22;52912;48.564;9.302;2023-02-03T00:30:56;5.13;90.06
66119;DHT22;52912;48.564;9.302;2023-02-03T00:33:22;5.14;90.27
66119;DHT22;52912;48.564;9.302;2023-02-03T00:35:47;5.08;90.89
66119;DHT22;52912;48.564;9.302;2023-02-03T00:38:13;5.08;90.82
66119;DHT22;52912;48.564;9.302;2023-02-03T00:40:40;5.03;90.97
66119;DHT22;52912;48.564;9.302;2023-02-03T00:43:05;5.01;91.26
66119;DHT22;52912;48.564;9.302;2023-02-03T00:45:30;5.01;91.32
66119;DHT22;52912;48.564;9.302;2023-02-03T00:47:56;5.01;91.39
66119;DHT22;52912;48.564;9.302;2023-02-03T00:50:21;5.03;91.43
66119;DHT22;52912;48.564;9.302;2023-02-03T00:52:47;4.98;91.49
66119;DHT22;52912;48.564;9.302;2023-02-03T00:55:12;5.00;91.51
66119;DHT22;52912;48.564;9.302;2023-02-03T00:57:39;4.96;91.55
66119;DHT22;52912;48.564;9.302;2023-02-03T01:00:06;4.94;91.62
66119;DHT22;52912;48.564;9.302;2023-02-03T01:02:31;4.98;91.59
66119;DHT22;52912;48.564;9.302;2023-02-03T01:04:59;4.97;91.51
66119;DHT22;52912;48.564;9.302;2023-02-03T01:07:25;4.96;91.42
66119;DHT22;52912;48.564;9.302;2023-02-03T01:09:50;4.97;91.35
66119;DHT22;52912;48.564;9.302;2023-02-03T01:12:15;4.93;91.43
66119;DHT22;52912;48.564;9.302;2023-02-03T01:14:42;4.96;91.24
66119;DHT22;52912;48.564;9.302;2023-02-03T01:17:08;4.96;91.34
66119;DHT22;52912;48.564;9.302;2023-02-03T01:19:33;4.94;91.23
66119;DHT22;52912;48.564;9.302;2023-02-03T01:21:59;4.97;91.22
66119;DHT22;52912;48.564;9.302;2023-02-03T01:24:24;4.97;91.12
66119;DHT22;52912;48.564;9.302;2023-02-03T01:26:50;4.96;91.37
66119;DHT22;52912;48.564;9.302;2023-02-03T01:29:15;5.03;90.93
66119;DHT22;52912;48.564;9.302;2023-02-03T01:31:43;4.97;91.07
66119;DHT22;52912;48.564;9.302;2023-02-03T01:34:11;4.96;91.06
66119;DHT22;52912;48.564;9.302;2023-02-03T01:36:37;4.93;91.29
66119;DHT22;52912;48.564;9.302;2023-02-03T01:39:03;5.01;91.14
66119;DHT22;52912;48.564;9.302;2023-02-03T01:41:30;4.98;91.04
66119;DHT22;52912;48.564;9.302;2023-02-03T01:43:58;5.01;90.83
66119;DHT22;52912;48.564;9.302;2023-02-03T01:46:28;5.03;90.74
66119;DHT22;52912;48.564;9.302;2023-02-03T01:49:00;5.01;90.85
66119;DHT22;52912;48.564;9.302;2023-02-03T01:51:28;4.98;90.97
66119;DHT22;52912;48.564;9.302;2023-02-03T01:53:54;5.04;90.70
66119;DHT22;52912;48.564;9.302;2023-02-03T01:56:20;5.08;90.51
66119;DHT22;52912;48.564;9.302;2023-02-03T01:58:46;5.04;90.48
66119;DHT22;52912;48.564;9.302;2023-02-03T02:01:13;5.03;90.53
66119;DHT22;52912;48.564;9.302;2023-02-03T02:03:41;5.05;90.33
66119;DHT22;52912;48.564;9.302;2023-02-03T02:06:10;5.08;90.32
66119;DHT22;52912;48.564;9.302;2023-02-03T02:08:37;5.07;90.42
66119;DHT22;52912;48.564;9.302;2023-02-03T02:11:04;5.10;90.20
66119;DHT22;52912;48.564;9.302;2023-02-03T02:13:32;5.07;90.22
66119;DHT22;52912;48.564;9.302;2023-02-03T02:16:04;5.07;90.22
66119;DHT22;52912;48.564;9.302;2023-02-03T02:18:39;5.10;90.05
66119;DHT22;52912;48.564;9.302;2023-02-03T02:24:28;5.15;89.99
66119;DHT22;52912;48.564;9.302;2023-02-03T02:27:07;5.17;90.08
66119;DHT22;52912;48.564;9.302;2023-02-03T02:32:53;5.14;89.79
66119;DHT22;52912;48.564;9.302;2023-02-03T02:35:24;5.18;89.84
66119;DHT22;52912;48.564;9.302;2023-02-03T02:37:58;5.10;89.82
66119;DHT22;52912;48.564;9.302;2023-02-03T02:40:32;5.13;89.79
66119;DHT22;52912;48.564;9.302;2023-02-03T02:43:05;5.17;89.65
66119;DHT22;52912;48.564;9.302;2023-02-03T02:45:40;5.20;89.63
66119;DHT22;52912;48.564;9.302;2023-02-03T02:48:13;5.22;89.64
66119;DHT22;52912;48.564;9.302;2023-02-03T02:50:42;5.18;89.52
66119;DHT22;52912;48.564;9.302;2023-02-03T02:53:10;5.24;89.31
66119;DHT22;52912;48.564;9.302;2023-02-03T02:55:37;5.22;89.28
66119;DHT22;52912;48.564;9.302;2023-02-03T02:58:06;5.27;89.04
66119;DHT22;52912;48.564;9.302;2023-02-03T03:00:34;5.27;88.99
66119;DHT22;52912;48.564;9.302;2023-02-03T03:03:11;5.31;88.88
66119;DHT22;52912;48.564;9.302;2023-02-03T03:05:37;5.30;88.99
66119;DHT22;52912;48.564;9.302;2023-02-03T03:08:05;5.25;88.94
66119;DHT22;52912;48.564;9.302;2023-02-03T03:10:33;5.28;88.97
66119;DHT22;52912;48.564;9.302;2023-02-03T03:13:03;5.31;88.97
66119;DHT22;52912;48.564;9.302;2023-02-03T03:15:31;5.36;88.77
66119;DHT22;52912;48.564;9.302;2023-02-03T03:18:02;5.32;88.75
66119;DHT22;52912;48.564;9.302;2023-02-03T03:20:32;5.31;88.76
66119;DHT22;52912;48.564;9.302;2023-02-03T03:23:00;5.28;88.68
66119;DHT22;52912;48.564;9.302;2023-02-03T03:25:30;5.31;88.80
66119;DHT22;52912;48.564;9.302;2023-02-03T03:28:03;5.24;88.96
66119;DHT22;52912;48.564;9.302;2023-02-03T03:30:32;5.27;88.79
66119;DHT22;52912;48.564;9.302;2023-02-03T03:32:59;5.27;88.98
66119;DHT22;52912;48.564;9.302;2023-02-03T03:35:29;5.27;88.85
66119;DHT22;52912;48.564;9.302;2023-02-03T03:37:59;5.32;88.73
66119;DHT22;52912;48.564;9.302;2023-02-03T03:40:33;5.25;88.96
66119;DHT22;52912;48.564;9.302;2023-02-03T03:43:03;5.30;88.73
66119;DHT22;52912;48.564;9.302;2023-02-03T03:45:32;5.28;88.66
66119;DHT22;52912;48.564;9.302;2023-02-03T03:48:04;5.25;88.80
66119;DHT22;52912;48.564;9.302;2023-02-03T03:50:33;5.31;88.45
66119;DHT22;52912;48.564;9.302;2023-02-03T03:53:03;5.30;88.70
66119;DHT22;52912;48.564;9.302;2023-02-03T03:55:32;5.39;88.38
66119;DHT22;52912;48.564;9.302;2023-02-03T03:58:00;5.34;88.44
66119;DHT22;52912;48.564;9.302;2023-02-03T04:00:30;5.31;88.47
66119;DHT22;52912;48.564;9.302;2023-02-03T04:02:57;5.34;88.36
66119;DHT22;52912;48.564;9.302;2023-02-03T04:05:24;5.31;88.57
66119;DHT22;52912;48.564;9.302;2023-02-03T04:07:51;5.34;88.44
66119;DHT22;52912;48.564;9.302;2023-02-03T04:10:22;5.39;88.30
66119;DHT22;52912;48.564;9.302;2023-02-03T04:12:49;5.34;88.17
66119;DHT22;52912;48.564;9.302;2023-02-03T04:15:15;5.41;88.22
66119;DHT22;52912;48.564;9.302;2023-02-03T04:17:40;5.38;88.30
66119;DHT22;52912;48.564;9.302;2023-02-03T04:20:06;5.36;88.20
66119;DHT22;52912;48.564;9.302;2023-02-03T04:22:32;5.35;87.97
66119;DHT22;52912;48.564;9.302;2023-02-03T04:24:57;5.34;88.09
66119;DHT22;52912;48.564;9.302;2023-02-03T04:27:24;5.34;88.09
66119;DHT22;52912;48.564;9.302;2023-02-03T04:29:50;5.39;87.95
66119;DHT22;52912;48.564;9.302;2023-02-03T04:32:15;5.36;87.97
66119;DHT22;52912;48.564;9.302;2023-02-03T04:34:41;5.41;87.94
66119;DHT22;52912;48.564;9.302;2023-02-03T04:37:07;5.41;87.98
66119;DHT22;52912;48.564;9.302;2023-02-03T04:39:32;5.41;87.84
66119;DHT22;52912;48.564;9.302;2023-02-03T04:41:58;5.42;88.13
66119;DHT22;52912;48.564;9.302;2023-02-03T04:44:24;5.42;88.05
66119;DHT22;52912;48.564;9.302;2023-02-03T04:46:50;5.32;88.52
66119;DHT22;52912;48.564;9.302;2023-02-03T04:49:15;5.42;88.18
66119;DHT22;52912;48.564;9.302;2023-02-03T04:51:41;5.31;88.44
66119;DHT22;52912;48.564;9.302;2023-02-03T04:54:06;5.32;88.52
66119;DHT22;52912;48.564;9.302;2023-02-03T04:56:32;5.39;88.51
66119;DHT22;52912;48.564;9.302;2023-02-03T04:58:57;5.39;88.25
66119;DHT22;52912;48.564;9.302;2023-02-03T05:01:24;5.32;88.50
66119;DHT22;52912;48.564;9.302;2023-02-03T05:03:49;5.30;88.36
66119;DHT22;52912;48.564;9.302;2023-02-03T05:06:15;5.30;88.47
66119;DHT22;52912;48.564;9.302;2023-02-03T05:08:40;5.28;88.55
66119;DHT22;52912;48.564;9.302;2023-02-03T05:11:06;5.27;88.76
66119;DHT22;52912;48.564;9.302;2023-02-03T05:13:31;5.30;88.27
66119;DHT22;52912;48.564;9.302;2023-02-03T05:15:57;5.28;88.63
66119;DHT22;52912;48.564;9.302;2023-02-03T05:18:23;5.27;88.62
66119;DHT22;52912;48.564;9.302;2023-02-03T05:20:49;5.31;88.26
66119;DHT22;52912;48.564;9.302;2023-02-03T05:23:14;5.31;88.63
66119;DHT22;52912;48.564;9.302;2023-02-03T05:25:42;5.31;88.71
66119;DHT22;52912;48.564;9.302;2023-02-03T05:28:07;5.27;88.97
66119;DHT22;52912;48.564;9.302;2023-02-03T05:30:33;5.25;89.20
66119;DHT22;52912;48.564;9.302;2023-02-03T05:32:58;5.25;88.85
66119;DHT22;52912;48.564;9.302;2023-02-03T05:35:25;5.20;88.91
66119;DHT22;52912;48.564;9.302;2023-02-03T05:37:51;5.20;88.82
66119;DHT22;52912;48.564;9.302;2023-02-03T05:40:17;5.18;89.23
66119;DHT22;52912;48.564;9.302;2023-02-03T05:42:46;5.17;89.43
66119;DHT22;52912;48.564;9.302;2023-02-03T05:45:11;5.13;89.31
66119;DHT22;52912;48.564;9.302;2023-02-03T05:47:37;5.15;89.01
66119;DHT22;52912;48.564;9.302;2023-02-03T05:50:03;5.14;89.20
66119;DHT22;52912;48.564;9.302;2023-02-03T05:52:29;5.13;89.28
66119;DHT22;52912;48.564;9.302;2023-02-03T05:54:55;5.13;89.69
66119;DHT22;52912;48.564;9.302;2023-02-03T05:57:20;5.11;89.78
66119;DHT22;52912;48.564;9.302;2023-02-03T05:59:46;5.08;89.72
66119;DHT22;52912;48.564;9.302;2023-02-03T06:02:11;5.07;89.98
66119;DHT22;52912;48.564;9.302;2023-02-03T06:04:37;5.04;90.07
66119;DHT22;52912;48.564;9.302;2023-02-03T06:07:02;5.01;89.97
66119;DHT22;52912;48.564;9.302;2023-02-03T06:09:29;5.00;90.07
66119;DHT22;52912;48.564;9.302;2023-02-03T06:11:54;4.98;89.95
66119;DHT22;52912;48.564;9.302;2023-02-03T06:14:20;5.00;89.72
66119;DHT22;52912;48.564;9.302;2023-02-03T06:16:45;4.96;89.84
66119;DHT22;52912;48.564;9.302;2023-02-03T06:19:11;4.98;89.62
66119;DHT22;52912;48.564;9.302;2023-02-03T06:21:36;4.98;89.68
66119;DHT22;52912;48.564;9.302;2023-02-03T06:24:02;5.08;89.21
66119;DHT22;52912;48.564;9.302;2023-02-03T06:26:29;5.01;89.44
66119;DHT22;52912;48.564;9.302;2023-02-03T06:28:54;5.00;89.16
66119;DHT22;52912;48.564;9.302;2023-02-03T06:31:20;5.01;89.08
66119;DHT22;52912;48.564;9.302;2023-02-03T06:33:45;5.10;89.41
66119;DHT22;52912;48.564;9.302;2023-02-03T06:36:11;5.04;89.29
66119;DHT22;52912;48.564;9.302;2023-02-03T06:38:36;5.03;88.89
66119;DHT22;52912;48.564;9.302;2023-02-03T06:41:02;5.05;88.95
66119;DHT22;52912;48.564;9.302;2023-02-03T06:43:28;5.05;88.89
66119;DHT22;52912;48.564;9.302;2023-02-03T06:45:54;5.03;89.01
66119;DHT22;52912;48.564;9.302;2023-02-03T06:48:19;5.05;88.64
66119;DHT22;52912;48.564;9.302;2023-02-03T06:50:45;5.10;88.70
66119;DHT22;52912;48.564;9.302;2023-02-03T06:53:10;5.10;88.51
66119;DHT22;52912;48.564;9.302;2023-02-03T06:55:36;5.11;88.33
66119;DHT22;52912;48.564;9.302;2023-02-03T06:58:01;5.11;88.35
66119;DHT22;52912;48.564;9.302;2023-02-03T07:00:28;5.15;88.20
66119;DHT22;52912;48.564;9.302;2023-02-03T07:02:54;5.15;88.55
66119;DHT22;52912;48.564;9.302;2023-02-03T07:05:20;5.13;88.90
66119;DHT22;52912;48.564;9.302;2023-02-03T07:07:45;5.08;89.46
66119;DHT22;52912;48.564;9.302;2023-02-03T07:10:11;5.01;89.57
66119;DHT22;52912;48.564;9.302;2023-02-03T07:12:36;4.98;89.45
66119;DHT22;52912;48.564;9.302;2023-02-03T07:15:02;5.01;89.55
66119;DHT22;52912;48.564;9.302;2023-02-03T07:17:29;5.04;89.42
66119;DHT22;52912;48.564;9.302;2023-02-03T07:19:55;5.05;89.19
66119;DHT22;52912;48.564;9.302;2023-02-03T07:22:20;5.13;89.02
66119;DHT22;52912;48.564;9.302;2023-02-03T07:24:45;5.14;89.29
66119;DHT22;52912;48.564;9.302;2023-02-03T07:27:11;5.13;89.18
66119;DHT22;52912;48.564;9.302;2023-02-03T07:29:37;5.14;89.11
66119;DHT22;52912;48.564;9.302;2023-02-03T07:32:02;5.15;89.48
66119;DHT22;52912;48.564;9.302;2023-02-03T07:34:29;5.17;89.45
66119;DHT22;52912;48.564;9.302;2023-02-03T07:36:55;5.11;89.80
66119;DHT22;52912;48.564;9.302;2023-02-03T07:39:20;5.11;89.63
66119;DHT22;52912;48.564;9.302;2023-02-03T07:41:46;5.17;89.66
66119;DHT22;52912;48.564;9.302;2023-02-03T07:44:11;5.24;89.25
66119;DHT22;52912;48.564;9.302;2023-02-03T07:46:37;5.27;89.46
66119;DHT22;52912;48.564;9.302;2023-02-03T07:49:02;5.28;89.39
66119;DHT22;52912;48.564;9.302;2023-02-03T07:51:29;5.30;89.09
66119;DHT22;52912;48.564;9.302;2023-02-03T07:53:55;5.32;89.07
66119;DHT22;52912;48.564;9.302;2023-02-03T07:56:21;5.39;88.80
66119;DHT22;52912;48.564;9.302;2023-02-03T07:58:46;5.41;88.84
66119;DHT22;52912;48.564;9.302;2023-02-03T08:01:13;5.38;88.89
66119;DHT22;52912;48.564;9.302;2023-02-03T08:03:39;5.41;88.99
66119;DHT22;52912;48.564;9.302;2023-02-03T08:06:05;5.35;89.14
66119;DHT22;52912;48.564;9.302;2023-02-03T08:08:32;5.31;89.58
66119;DHT22;52912;48.564;9.302;2023-02-03T08:10:57;5.32;89.65
66119;DHT22;52912;48.564;9.302;2023-02-03T08:13:23;5.36;89.34
66119;DHT22;52912;48.564;9.302;2023-02-03T08:15:48;5.34;89.20
66119;DHT22;52912;48.564;9.302;2023-02-03T08:18:14;5.38;89.27
66119;DHT22;52912;48.564;9.302;2023-02-03T08:20:39;5.42;88.99
66119;DHT22;52912;48.564;9.302;2023-02-03T08:23:05;5.32;89.86
66119;DHT22;52912;48.564;9.302;2023-02-03T08:25:32;5.38;89.71
66119;DHT22;52912;48.564;9.302;2023-02-03T08:27:57;5.36;89.88
66119;DHT22;52912;48.564;9.302;2023-02-03T08:30:23;5.35;89.69
66119;DHT22;52912;48.564;9.302;2023-02-03T08:32:49;5.43;89.30
66119;DHT22;52912;48.564;9.302;2023-02-03T08:35:14;5.43;89.68
66119;DHT22;52912;48.564;9.302;2023-02-03T08:37:39;5.46;89.33
66119;DHT22;52912;48.564;9.302;2023-02-03T08:40:06;5.52;89.48
66119;DHT22;52912;48.564;9.302;2023-02-03T08:42:33;5.52;89.68
66119;DHT22;52912;48.564;9.302;2023-02-03T08:44:58;5.59;89.50
66119;DHT22;52912;48.564;9.302;2023-02-03T08:47:24;5.55;89.58
66119;DHT22;52912;48.564;9.302;2023-02-03T08:49:50;5.55;89.78
66119;DHT22;52912;48.564;9.302;2023-02-03T08:52:15;5.66;89.86
66119;DHT22;52912;48.564;9.302;2023-02-03T08:54:41;5.59;90.06
66119;DHT22;52912;48.564;9.302;2023-02-03T08:57:07;5.53;90.61
66119;DHT22;52912;48.564;9.302;2023-02-03T08:59:34;5.58;91.18
66119;DHT22;52912;48.564;9.302;2023-02-03T09:02:01;5.50;90.59
66119;DHT22;52912;48.564;9.302;2023-02-03T09:04:27;5.53;90.88
66119;DHT22;52912;48.564;9.302;2023-02-03T09:06:53;5.55;91.12
66119;DHT22;52912;48.564;9.302;2023-02-03T09:09:19;5.49;91.18
66119;DHT22;52912;48.564;9.302;2023-02-03T09:11:44;5.53;91.63
66119;DHT22;52912;48.564;9.302;2023-02-03T09:14:10;5.52;91.47
66119;DHT22;52912;48.564;9.302;2023-02-03T09:16:37;5.62;91.51
66119;DHT22;52912;48.564;9.302;2023-02-03T09:19:02;5.58;91.46
66119;DHT22;52912;48.564;9.302;2023-02-03T09:21:28;5.63;91.70
66119;DHT22;52912;48.564;9.302;2023-02-03T09:23:53;5.58;91.39
66119;DHT22;52912;48.564;9.302;2023-02-03T09:26:19;5.63;91.75
66119;DHT22;52912;48.564;9.302;2023-02-03T09:28:44;5.60;90.90
66119;DHT22;52912;48.564;9.302;2023-02-03T09:31:12;5.63;91.38
66119;DHT22;52912;48.564;9.302;2023-02-03T09:33:39;5.70;90.93
66119;DHT22;52912;48.564;9.302;2023-02-03T09:36:06;5.69;90.85
66119;DHT22;52912;48.564;9.302;2023-02-03T09:38:32;5.69;90.53
66119;DHT22;52912;48.564;9.302;2023-02-03T09:41:01;5.74;90.85
66119;DHT22;52912;48.564;9.302;2023-02-03T09:43:32;5.78;91.02
66119;DHT22;52912;48.564;9.302;2023-02-03T09:46:04;5.87;89.91
66119;DHT22;52912;48.564;9.302;2023-02-03T09:48:35;5.87;90.18
66119;DHT22;52912;48.564;9.302;2023-02-03T09:51:02;5.94;89.82
66119;DHT22;52912;48.564;9.302;2023-02-03T09:53:32;5.98;89.66
66119;DHT22;52912;48.564;9.302;2023-02-03T09:55:59;6.05;89.81
66119;DHT22;52912;48.564;9.302;2023-02-03T09:58:28;6.07;88.80
66119;DHT22;52912;48.564;9.302;2023-02-03T10:00:58;6.12;88.93
66119;DHT22;52912;48.564;9.302;2023-02-03T10:03:30;6.18;88.49
66119;DHT22;52912;48.564;9.302;2023-02-03T10:06:11;6.20;88.75
66119;DHT22;52912;48.564;9.302;2023-02-03T10:08:54;6.26;88.10
66119;DHT22;52912;48.564;9.302;2023-02-03T10:11:27;6.26;88.23
66119;DHT22;52912;48.564;9.302;2023-02-03T10:14:06;6.33;87.73
66119;DHT22;52912;48.564;9.302;2023-02-03T10:16:47;6.43;88.52
66119;DHT22;52912;48.564;9.302;2023-02-03T10:19:17;6.40;88.81
66119;DHT22;52912;48.564;9.302;2023-02-03T10:21:47;6.36;88.88
66119;DHT22;52912;48.564;9.302;2023-02-03T10:24:17;6.31;88.69
66119;DHT22;52912;48.564;9.302;2023-02-03T10:26:43;6.21;88.60
66119;DHT22;52912;48.564;9.302;2023-02-03T10:29:17;6.21;89.05
66119;DHT22;52912;48.564;9.302;2023-02-03T10:31:43;6.21;89.60
66119;DHT22;52912;48.564;9.302;2023-02-03T10:34:10;6.24;89.58
66119;DHT22;52912;48.564;9.302;2023-02-03T10:36:50;6.31;88.09
66119;DHT22;52912;48.564;9.302;2023-02-03T10:39:22;6.31;88.03
66119;DHT22;52912;48.564;9.302;2023-02-03T10:41:48;6.36;87.20
66119;DHT22;52912;48.564;9.302;2023-02-03T10:44:14;6.33;86.75
66119;DHT22;52912;48.564;9.302;2023-02-03T10:46:41;6.28;86.44
66119;DHT22;52912;48.564;9.302;2023-02-03T10:49:07;6.32;86.84
66119;DHT22;52912;48.564;9.302;2023-02-03T10:51:36;6.39;86.61
66119;DHT22;52912;48.564;9.302;2023-02-03T10:54:03;6.45;86.70
66119;DHT22;52912;48.564;9.302;2023-02-03T10:56:30;6.43;87.33
66119;DHT22;52912;48.564;9.302;2023-02-03T10:58:59;6.40;86.81
66119;DHT22;52912;48.564;9.302;2023-02-03T11:01:26;6.45;87.51
66119;DHT22;52912;48.564;9.302;2023-02-03T11:03:56;6.39;87.84
66119;DHT22;52912;48.564;9.302;2023-02-03T11:06:22;6.48;87.99
66119;DHT22;52912;48.564;9.302;2023-02-03T11:08:49;6.46;88.51
66119;DHT22;52912;48.564;9.302;2023-02-03T11:11:20;6.52;88.37
66119;DHT22;52912;48.564;9.302;2023-02-03T11:13:46;6.45;87.99
66119;DHT22;52912;48.564;9.302;2023-02-03T11:16:15;6.46;87.21
66119;DHT22;52912;48.564;9.302;2023-02-03T11:18:45;6.43;88.24
66119;DHT22;52912;48.564;9.302;2023-02-03T11:21:17;6.43;87.76
66119;DHT22;52912;48.564;9.302;2023-02-03T11:23:49;6.52;87.72
66119;DHT22;52912;48.564;9.302;2023-02-03T11:26:20;6.49;87.26
66119;DHT22;52912;48.564;9.302;2023-02-03T11:28:49;6.52;87.87
66119;DHT22;52912;48.564;9.302;2023-02-03T11:31:18;6.54;87.08
66119;DHT22;52912;48.564;9.302;2023-02-03T11:33:50;6.50;86.90
66119;DHT22;52912;48.564;9.302;2023-02-03T11:36:17;6.54;86.48
66119;DHT22;52912;48.564;9.302;2023-02-03T11:38:42;6.49;86.53
66119;DHT22;52912;48.564;9.302;2023-02-03T11:41:15;6.53;86.22
66119;DHT22;52912;48.564;9.302;2023-02-03T11:43:42;6.49;86.51
66119;DHT22;52912;48.564;9.302;2023-02-03T11:46:07;6.52;86.91
66119;DHT22;52912;48.564;9.302;2023-02-03T11:48:35;6.54;86.84
66119;DHT22;52912;48.564;9.302;2023-02-03T11:51:12;6.53;86.44
66119;DHT22;52912;48.564;9.302;2023-02-03T11:53:51;6.59;86.05
66119;DHT22;52912;48.564;9.302;2023-02-03T11:56:26;6.59;86.19
66119;DHT22;52912;48.564;9.302;2023-02-03T11:59:25;6.62;86.22
66119;DHT22;52912;48.564;9.302;2023-02-03T12:02:04;6.59;86.34
66119;DHT22;52912;48.564;9.302;2023-02-03T12:04:39;6.62;85.74
66119;DHT22;52912;48.564;9.302;2023-02-03T12:07:25;6.50;85.74
66119;DHT22;52912;48.564;9.302;2023-02-03T12:10:00;6.53;86.44
66119;DHT22;52912;48.564;9.302;2023-02-03T12:12:45;6.62;86.07
66119;DHT22;52912;48.564;9.302;2023-02-03T12:15:46;6.66;86.71
66119;DHT22;52912;48.564;9.302;2023-02-03T12:18:29;6.69;86.30
66119;DHT22;52912;48.564;9.302;2023-02-03T12:21:06;6.60;86.10
66119;DHT22;52912;48.564;9.302;2023-02-03T12:23:44;6.60;86.17
66119;DHT22;52912;48.564;9.302;2023-02-03T12:26:18;6.56;86.31
66119;DHT22;52912;48.564;9.302;2023-02-03T12:28:54;6.56;86.83
66119;DHT22;52912;48.564;9.302;2023-02-03T12:31:28;6.54;87.12
66119;DHT22;52912;48.564;9.302;2023-02-03T12:34:03;6.49;87.24
66119;DHT22;52912;48.564;9.302;2023-02-03T12:36:35;6.43;87.65
66119;DHT22;52912;48.564;9.302;2023-02-03T12:39:05;6.46;87.54
66119;DHT22;52912;48.564;9.302;2023-02-03T12:41:35;6.43;87.60
66119;DHT22;52912;48.564;9.302;2023-02-03T12:44:05;6.46;87.31
66119;DHT22;52912;48.564;9.302;2023-02-03T12:46:39;6.43;87.63
66119;DHT22;52912;48.564;9.302;2023-02-03T12:49:11;6.43;87.45
66119;DHT22;52912;48.564;9.302;2023-02-03T12:51:41;6.45;87.21
66119;DHT22;52912;48.564;9.302;2023-02-03T12:54:21;6.48;87.27
66119;DHT22;52912;48.564;9.302;2023-02-03T12:56:49;6.50;86.78
66119;DHT22;52912;48.564;9.302;2023-02-03T12:59:19;6.53;86.25
66119;DHT22;52912;48.564;9.302;2023-02-03T13:01:49;6.53;86.38
66119;DHT22;52912;48.564;9.302;2023-02-03T13:04:24;6.53;86.11
66119;DHT22;52912;48.564;9.302;2023-02-03T13:06:57;6.53;85.92
66119;DHT22;52912;48.564;9.302;2023-02-03T13:09:32;6.56;85.91
66119;DHT22;52912;48.564;9.302;2023-02-03T13:12:04;6.56;85.59
66119;DHT22;52912;48.564;9.302;2023-02-03T13:14:33;6.53;85.59
66119;DHT22;52912;48.564;9.302;2023-02-03T13:17:05;6.63;85.59
66119;DHT22;52912;48.564;9.302;2023-02-03T13:19:38;6.60;85.37
66119;DHT22;52912;48.564;9.302;2023-02-03T13:22:10;6.57;85.40
66119;DHT22;52912;48.564;9.302;2023-02-03T13:24:37;6.57;85.00
66119;DHT22;52912;48.564;9.302;2023-02-03T13:27:16;6.60;85.24
66119;DHT22;52912;48.564;9.302;2023-02-03T13:29:52;6.59;85.29
66119;DHT22;52912;48.564;9.302;2023-02-03T13:32:47;6.60;85.48
66119;DHT22;52912;48.564;9.302;2023-02-03T13:35:29;6.62;85.65
66119;DHT22;52912;48.564;9.302;2023-02-03T13:38:08;6.59;85.53
66119;DHT22;52912;48.564;9.302;2023-02-03T13:40:46;6.57;85.45
66119;DHT22;52912;48.564;9.302;2023-02-03T13:43:17;6.59;85.50
66119;DHT22;52912;48.564;9.302;2023-02-03T13:45:45;6.60;85.57
66119;DHT22;52912;48.564;9.302;2023-02-03T13:48:17;6.57;85.56
66119;DHT22;52912;48.564;9.302;2023-02-03T13:50:43;6.60;85.77
66119;DHT22;52912;48.564;9.302;2023-02-03T13:53:15;6.56;85.63
66119;DHT22;52912;48.564;9.302;2023-02-03T13:55:43;6.65;85.57
66119;DHT22;52912;48.564;9.302;2023-02-03T13:58:19;6.63;85.35
66119;DHT22;52912;48.564;9.302;2023-02-03T14:01:05;6.59;85.43
66119;DHT22;52912;48.564;9.302;2023-02-03T14:03:43;6.54;85.35
66119;DHT22;52912;48.564;9.302;2023-02-03T14:09:27;6.62;85.42
66119;DHT22;52912;48.564;9.302;2023-02-03T14:12:15;6.59;85.25
66119;DHT22;52912;48.564;9.302;2023-02-03T14:14:59;6.62;85.36
66119;DHT22;52912;48.564;9.302;2023-02-03T14:17:54;6.63;85.28
66119;DHT22;52912;48.564;9.302;2023-02-03T14:20:49;6.60;85.24
66119;DHT22;52912;48.564;9.302;2023-02-03T14:23:19;6.65;85.57
66119;DHT22;52912;48.564;9.302;2023-02-03T14:25:49;6.63;85.37
66119;DHT22;52912;48.564;9.302;2023-02-03T14:28:16;6.60;85.60
66119;DHT22;52912;48.564;9.302;2023-02-03T14:31:02;6.62;85.70
66119;DHT22;52912;48.564;9.302;2023-02-03T14:33:50;6.63;85.53
66119;DHT22;52912;48.564;9.302;2023-02-03T14:36:33;6.63;85.89
66119;DHT22;52912;48.564;9.302;2023-02-03T14:39:02;6.60;85.73
66119;DHT22;52912;48.564;9.302;2023-02-03T14:41:35;6.63;85.71
66119;DHT22;52912;48.564;9.302;2023-02-03T14:44:07;6.62;85.77
66119;DHT22;52912;48.564;9.302;2023-02-03T14:46:49;6.59;85.90
66119;DHT22;52912;48.564;9.302;2023-02-03T14:49:29;6.59;85.90
66119;DHT22;52912;48.564;9.302;2023-02-03T14:52:11;6.63;85.86
66119;DHT22;52912;48.564;9.302;2023-02-03T14:54:48;6.67;86.05
66119;DHT22;52912;48.564;9.302;2023-02-03T14:57:28;6.63;85.70
66119;DHT22;52912;48.564;9.302;2023-02-03T15:00:01;6.65;85.87
66119;DHT22;52912;48.564;9.302;2023-02-03T15:02:29;6.66;85.81
66119;DHT22;52912;48.564;9.302;2023-02-03T15:07:54;6.65;86.15
66119;DHT22;52912;48.564;9.302;2023-02-03T15:10:21;6.62;86.34
66119;DHT22;52912;48.564;9.302;2023-02-03T15:12:49;6.69;85.97
66119;DHT22;52912;48.564;9.302;2023-02-03T15:15:19;6.69;86.00
66119;DHT22;52912;48.564;9.302;2023-02-03T15:17:45;6.65;86.17
66119;DHT22;52912;48.564;9.302;2023-02-03T15:20:26;6.57;86.17
66119;DHT22;52912;48.564;9.302;2023-02-03T15:22:54;6.63;85.97
66119;DHT22;52912;48.564;9.302;2023-02-03T15:25:21;6.59;86.22
66119;DHT22;52912;48.564;9.302;2023-02-03T15:27:47;6.56;86.36
66119;DHT22;52912;48.564;9.302;2023-02-03T15:30:14;6.56;86.65
66119;DHT22;52912;48.564;9.302;2023-02-03T15:32:42;6.53;86.94
66119;DHT22;52912;48.564;9.302;2023-02-03T15:35:14;6.57;86.70
66119;DHT22;52912;48.564;9.302;2023-02-03T15:37:43;6.50;87.06
66119;DHT22;52912;48.564;9.302;2023-02-03T15:40:15;6.48;87.31
66119;DHT22;52912;48.564;9.302;2023-02-03T15:42:46;6.49;87.45
66119;DHT22;52912;48.564;9.302;2023-02-03T15:45:21;6.46;87.81
66119;DHT22;52912;48.564;9.302;2023-02-03T15:47:50;6.42;87.82
66119;DHT22;52912;48.564;9.302;2023-02-03T15:50:27;6.43;87.89
66119;DHT22;52912;48.564;9.302;2023-02-03T15:52:55;6.49;87.99
66119;DHT22;52912;48.564;9.302;2023-02-03T15:55:30;6.40;88.16
66119;DHT22;52912;48.564;9.302;2023-02-03T15:57:57;6.42;88.32
66119;DHT22;52912;48.564;9.302;2023-02-03T16:00:31;6.39;88.17
66119;DHT22;52912;48.564;9.302;2023-02-03T16:02:58;6.38;88.40
66119;DHT22;52912;48.564;9.302;2023-02-03T16:05:29;6.38;88.17
66119;DHT22;52912;48.564;9.302;2023-02-03T16:07:55;6.40;87.89
66119;DHT22;52912;48.564;9.302;2023-02-03T16:10:27;6.46;87.62